createdAt,value
2023-02-20T00:00:36.000Z,9.33
2023-02-20T00:01:34.000Z,9.33
2023-02-20T00:02:35.000Z,9.33
2023-02-20T00:03:34.000Z,9.32
2023-02-20T00:04:34.000Z,9.34
2023-02-20T00:05:35.000Z,9.34
2023-02-20T00:06:34.000Z,9.34
2023-02-20T00:07:34.000Z,9.30
2023-02-20T00:08:34.000Z,9.31
2023-02-20T00:09:34.000Z,9.32
2023-02-20T00:10:34.000Z,9.31
2023-02-20T00:11:34.000Z,9.31
2023-02-20T00:12:34.000Z,9.29
2023-02-20T00:13:34.000Z,9.30
2023-02-20T00:14:34.000Z,9.31
2023-02-20T00:15:33.000Z,9.30
2023-02-20T00:16:33.000Z,9.30
2023-02-20T00:17:34.000Z,9.31
2023-02-20T00:18:34.000Z,9.30
2023-02-20T00:19:33.000Z,9.29
2023-02-20T00:20:35.000Z,9.27
2023-02-20T00:21:34.000Z,9.29
2023-02-20T00:22:34.000Z,9.28
2023-02-20T00:23:34.000Z,9.28
2023-02-20T00:24:34.000Z,9.28
2023-02-20T00:25:34.000Z,9.29
2023-02-20T00:26:33.000Z,9.26
2023-02-20T00:27:33.000Z,9.25
2023-02-20T00:28:36.000Z,9.24
2023-02-20T00:29:35.000Z,9.26
2023-02-20T00:30:33.000Z,9.24
2023-02-20T00:31:33.000Z,9.24
2023-02-20T00:32:33.000Z,9.24
2023-02-20T00:33:35.000Z,9.23
2023-02-20T00:34:33.000Z,9.20
2023-02-20T00:35:36.000Z,9.19
2023-02-20T00:36:33.000Z,9.21
2023-02-20T00:37:34.000Z,9.18
2023-02-20T00:38:33.000Z,9.17
2023-02-20T00:39:33.000Z,9.18
2023-02-20T00:40:34.000Z,9.15
2023-02-20T00:41:33.000Z,9.17
2023-02-20T00:42:34.000Z,9.13
2023-02-20T00:43:35.000Z,9.13
2023-02-20T00:44:33.000Z,9.12
2023-02-20T00:45:33.000Z,9.09
2023-02-20T00:46:34.000Z,9.08
2023-02-20T00:47:34.000Z,9.05
2023-02-20T00:48:34.000Z,9.04
2023-02-20T00:49:34.000Z,9.04
2023-02-20T00:50:34.000Z,9.04
2023-02-20T00:51:34.000Z,9.02
2023-02-20T00:52:34.000Z,9.02
2023-02-20T00:53:34.000Z,8.98
2023-02-20T00:54:34.000Z,8.95
2023-02-20T00:55:34.000Z,8.97
2023-02-20T00:56:34.000Z,8.96
2023-02-20T00:57:34.000Z,8.94
2023-02-20T00:58:34.000Z,8.96
2023-02-20T00:59:34.000Z,8.93
2023-02-20T01:00:34.000Z,8.91
2023-02-20T01:01:34.000Z,8.85
2023-02-20T01:02:34.000Z,8.84
2023-02-20T01:03:34.000Z,8.84
2023-02-20T01:04:34.000Z,8.83
2023-02-20T01:05:34.000Z,8.82
2023-02-20T01:06:34.000Z,8.79
2023-02-20T01:07:34.000Z,8.79
2023-02-20T01:08:34.000Z,8.78
2023-02-20T01:09:34.000Z,8.77
2023-02-20T01:10:34.000Z,8.74
2023-02-20T01:11:34.000Z,8.73
2023-02-20T01:12:34.000Z,8.72
2023-02-20T01:13:34.000Z,8.71
2023-02-20T01:14:34.000Z,8.71
2023-02-20T01:15:34.000Z,8.68
2023-02-20T01:16:33.000Z,8.67
2023-02-20T01:17:33.000Z,8.66
2023-02-20T01:18:33.000Z,8.64
2023-02-20T01:19:34.000Z,8.64
2023-02-20T01:20:34.000Z,8.63
2023-02-20T01:21:33.000Z,8.60
2023-02-20T01:22:33.000Z,8.59
2023-02-20T01:23:33.000Z,8.58
2023-02-20T01:24:34.000Z,8.55
2023-02-20T01:25:34.000Z,8.54
2023-02-20T01:26:34.000Z,8.54
2023-02-20T01:27:33.000Z,8.54
2023-02-20T01:28:33.000Z,8.53
2023-02-20T01:29:33.000Z,8.52
2023-02-20T01:30:34.000Z,8.50
2023-02-20T01:31:34.000Z,8.49
2023-02-20T01:32:34.000Z,8.48
2023-02-20T01:33:33.000Z,8.46
2023-02-20T01:34:34.000Z,8.43
2023-02-20T01:35:34.000Z,8.43
2023-02-20T01:36:33.000Z,8.40
2023-02-20T01:37:33.000Z,8.40
2023-02-20T01:38:34.000Z,8.37
2023-02-20T01:39:33.000Z,8.34
2023-02-20T01:40:33.000Z,8.31
2023-02-20T01:41:34.000Z,8.31
2023-02-20T01:42:33.000Z,8.30
2023-02-20T01:43:34.000Z,8.30
2023-02-20T01:44:35.000Z,8.27
2023-02-20T01:45:36.000Z,8.27
2023-02-20T01:46:44.000Z,8.25
2023-02-20T01:47:34.000Z,8.22
2023-02-20T01:48:34.000Z,8.21
2023-02-20T01:49:39.000Z,8.18
2023-02-20T01:50:40.000Z,8.18
2023-02-20T01:51:39.000Z,8.17
2023-02-20T01:52:34.000Z,8.13
2023-02-20T01:53:34.000Z,8.12
2023-02-20T01:54:39.000Z,8.11
2023-02-20T01:55:54.000Z,8.11
2023-02-20T01:56:34.000Z,8.08
2023-02-20T01:57:39.000Z,8.07
2023-02-20T01:58:43.000Z,8.07
2023-02-20T01:59:37.000Z,8.05
2023-02-20T02:00:35.000Z,8.04
2023-02-20T02:01:34.000Z,8.02
2023-02-20T02:02:54.000Z,8.03
2023-02-20T02:03:42.000Z,8.03
2023-02-20T02:04:36.000Z,8.01
2023-02-20T02:05:37.000Z,7.99
2023-02-20T02:06:38.000Z,7.98
2023-02-20T02:07:34.000Z,7.98
2023-02-20T02:08:36.000Z,7.97
2023-02-20T02:09:45.000Z,7.96
2023-02-20T02:10:47.000Z,7.93
2023-02-20T02:11:35.000Z,7.92
2023-02-20T02:12:35.000Z,7.92
2023-02-20T02:13:36.000Z,7.91
2023-02-20T02:14:34.000Z,7.90
2023-02-20T02:15:34.000Z,7.87
2023-02-20T02:16:54.000Z,7.87
2023-02-20T02:17:57.000Z,7.85
2023-02-20T02:18:44.000Z,7.85
2023-02-20T02:19:55.000Z,7.84
2023-02-20T02:20:44.000Z,7.84
2023-02-20T02:21:50.000Z,7.80
2023-02-20T02:22:44.000Z,7.80
2023-02-20T02:23:52.000Z,7.79
2023-02-20T02:24:54.000Z,7.78
2023-02-20T02:25:51.000Z,7.75
2023-02-20T02:26:44.000Z,7.75
2023-02-20T02:27:57.000Z,7.74
2023-02-20T02:28:57.000Z,7.74
2023-02-20T02:29:57.000Z,7.68
2023-02-20T02:30:44.000Z,7.67
2023-02-20T02:32:00.000Z,7.67
2023-02-20T02:32:54.000Z,7.67
2023-02-20T02:33:51.000Z,7.66
2023-02-20T02:34:59.000Z,7.64
2023-02-20T02:35:44.000Z,7.62
2023-02-20T02:36:57.000Z,7.62
2023-02-20T02:37:46.000Z,7.61
2023-02-20T02:38:57.000Z,7.58
2023-02-20T02:39:48.000Z,7.59
2023-02-20T02:40:54.000Z,7.57
2023-02-20T02:41:58.000Z,7.57
2023-02-20T02:42:53.000Z,7.56
2023-02-20T02:43:48.000Z,7.53
2023-02-20T02:44:57.000Z,7.53
2023-02-20T02:45:44.000Z,7.54
2023-02-20T02:46:43.000Z,7.50
2023-02-20T02:47:48.000Z,7.50
2023-02-20T02:48:40.000Z,7.49
2023-02-20T02:49:56.000Z,7.46
2023-02-20T02:50:38.000Z,7.46
2023-02-20T02:51:37.000Z,7.47
2023-02-20T02:52:39.000Z,7.46
2023-02-20T02:53:34.000Z,7.46
2023-02-20T02:54:34.000Z,7.44
2023-02-20T02:55:34.000Z,7.43
2023-02-20T02:56:36.000Z,7.43
2023-02-20T02:57:34.000Z,7.35
2023-02-20T02:58:34.000Z,7.35
2023-02-20T02:59:34.000Z,7.35
2023-02-20T03:00:52.000Z,7.34
2023-02-20T03:01:41.000Z,7.31
2023-02-20T03:02:41.000Z,7.33
2023-02-20T03:03:40.000Z,7.32
2023-02-20T03:04:35.000Z,7.30
2023-02-20T03:05:49.000Z,7.31
2023-02-20T03:06:38.000Z,7.30
2023-02-20T03:07:37.000Z,7.30
2023-02-20T03:08:44.000Z,7.27
2023-02-20T03:09:39.000Z,7.27
2023-02-20T03:10:36.000Z,7.27
2023-02-20T03:11:36.000Z,7.26
2023-02-20T03:12:41.000Z,7.25
2023-02-20T03:13:55.000Z,7.25
2023-02-20T03:14:57.000Z,7.24
2023-02-20T03:15:39.000Z,7.21
2023-02-20T03:16:58.000Z,7.19
2023-02-20T03:17:52.000Z,7.19
2023-02-20T03:18:39.000Z,7.17
2023-02-20T03:19:41.000Z,7.16
2023-02-20T03:20:37.000Z,7.16
2023-02-20T03:21:36.000Z,7.17
2023-02-20T03:22:41.000Z,7.16
2023-02-20T03:23:38.000Z,7.13
2023-02-20T03:24:54.000Z,7.11
2023-02-20T03:25:54.000Z,7.11
2023-02-20T03:26:38.000Z,7.12
2023-02-20T03:27:48.000Z,7.12
2023-02-20T03:28:41.000Z,7.11
2023-02-20T03:29:36.000Z,7.10
2023-02-20T03:30:45.000Z,7.08
2023-02-20T03:31:51.000Z,7.09
2023-02-20T03:32:42.000Z,7.07
2023-02-20T03:33:45.000Z,7.06
2023-02-20T03:34:43.000Z,7.06
2023-02-20T03:35:42.000Z,7.06
2023-02-20T03:36:46.000Z,7.05
2023-02-20T03:37:43.000Z,7.01
2023-02-20T03:38:42.000Z,7.01
2023-02-20T03:39:44.000Z,6.99
2023-02-20T03:40:40.000Z,7.00
2023-02-20T03:41:41.000Z,7.00
2023-02-20T03:42:43.000Z,6.99
2023-02-20T03:43:36.000Z,6.96
2023-02-20T03:44:36.000Z,6.97
2023-02-20T03:45:37.000Z,6.99
2023-02-20T03:46:37.000Z,6.98
2023-02-20T03:47:37.000Z,6.98
2023-02-20T03:48:44.000Z,6.98
2023-02-20T03:49:41.000Z,6.95
2023-02-20T03:50:34.000Z,6.96
2023-02-20T03:51:33.000Z,6.94
2023-02-20T03:52:33.000Z,6.95
2023-02-20T03:53:33.000Z,6.94
2023-02-20T03:54:35.000Z,6.95
2023-02-20T03:55:33.000Z,6.94
2023-02-20T03:56:42.000Z,6.93
2023-02-20T03:57:40.000Z,6.93
2023-02-20T03:58:39.000Z,6.88
2023-02-20T03:59:42.000Z,6.89
2023-02-20T04:00:39.000Z,6.88
2023-02-20T04:01:37.000Z,6.87
2023-02-20T04:02:39.000Z,6.87
2023-02-20T04:03:37.000Z,6.86
2023-02-20T04:04:42.000Z,6.87
2023-02-20T04:05:38.000Z,6.86
2023-02-20T04:06:35.000Z,6.87
2023-02-20T04:07:41.000Z,6.86
2023-02-20T04:08:39.000Z,6.87
2023-02-20T04:09:38.000Z,6.88
2023-02-20T04:10:40.000Z,6.87
2023-02-20T04:11:42.000Z,6.86
2023-02-20T04:12:38.000Z,6.87
2023-02-20T04:13:36.000Z,6.86
2023-02-20T04:14:35.000Z,6.88
2023-02-20T04:15:34.000Z,6.86
2023-02-20T04:16:42.000Z,6.85
2023-02-20T04:17:40.000Z,6.86
2023-02-20T04:18:34.000Z,6.83
2023-02-20T04:19:34.000Z,6.85
2023-02-20T04:20:35.000Z,6.85
2023-02-20T04:21:40.000Z,6.84
2023-02-20T04:22:39.000Z,6.80
2023-02-20T04:23:38.000Z,6.80
2023-02-20T04:24:42.000Z,6.81
2023-02-20T04:25:44.000Z,6.78
2023-02-20T04:26:35.000Z,6.77
2023-02-20T04:27:34.000Z,6.77
2023-02-20T04:28:34.000Z,6.76
2023-02-20T04:29:34.000Z,6.76
2023-02-20T04:30:34.000Z,6.75
2023-02-20T04:31:34.000Z,6.76
2023-02-20T04:32:34.000Z,6.76
2023-02-20T04:33:34.000Z,6.74
2023-02-20T04:34:34.000Z,6.74
2023-02-20T04:35:34.000Z,6.71
2023-02-20T04:36:34.000Z,6.72
2023-02-20T04:37:34.000Z,6.69
2023-02-20T04:38:34.000Z,6.70
2023-02-20T04:39:34.000Z,6.66
2023-02-20T04:40:34.000Z,6.68
2023-02-20T04:41:34.000Z,6.64
2023-02-20T04:42:34.000Z,6.63
2023-02-20T04:43:34.000Z,6.60
2023-02-20T04:44:35.000Z,6.60
2023-02-20T04:45:34.000Z,6.55
2023-02-20T04:46:34.000Z,6.56
2023-02-20T04:47:34.000Z,6.55
2023-02-20T04:48:34.000Z,6.53
2023-02-20T04:49:34.000Z,6.54
2023-02-20T04:50:34.000Z,6.52
2023-02-20T04:51:33.000Z,6.53
2023-02-20T04:52:33.000Z,6.51
2023-02-20T04:53:33.000Z,6.51
2023-02-20T04:54:33.000Z,6.52
2023-02-20T04:55:33.000Z,6.51
2023-02-20T04:56:33.000Z,6.51
2023-02-20T04:57:34.000Z,6.51
2023-02-20T04:58:35.000Z,6.51
2023-02-20T04:59:33.000Z,6.48
2023-02-20T05:00:33.000Z,6.49
2023-02-20T05:01:33.000Z,6.49
2023-02-20T05:02:36.000Z,6.50
2023-02-20T05:03:33.000Z,6.50
2023-02-20T05:04:34.000Z,6.51
2023-02-20T05:05:33.000Z,6.51
2023-02-20T05:06:39.000Z,6.50
2023-02-20T05:07:34.000Z,6.51
2023-02-20T05:08:33.000Z,6.49
2023-02-20T05:09:34.000Z,6.49
2023-02-20T05:10:35.000Z,6.50
2023-02-20T05:11:33.000Z,6.51
2023-02-20T05:12:33.000Z,6.51
2023-02-20T05:13:33.000Z,6.52
2023-02-20T05:14:34.000Z,6.51
2023-02-20T05:15:33.000Z,6.51
2023-02-20T05:16:36.000Z,6.54
2023-02-20T05:17:34.000Z,6.52
2023-02-20T05:18:34.000Z,6.54
2023-02-20T05:19:34.000Z,6.55
2023-02-20T05:20:39.000Z,6.57
2023-02-20T05:21:43.000Z,6.61
2023-02-20T05:22:34.000Z,6.59
2023-02-20T05:23:33.000Z,6.62
2023-02-20T05:24:33.000Z,6.64
2023-02-20T05:25:34.000Z,6.66
2023-02-20T05:26:33.000Z,6.67
2023-02-20T05:27:33.000Z,6.65
2023-02-20T05:28:33.000Z,6.65
2023-02-20T05:29:33.000Z,6.67
2023-02-20T05:30:33.000Z,6.65
2023-02-20T05:31:34.000Z,6.66
2023-02-20T05:32:34.000Z,6.65
2023-02-20T05:33:33.000Z,6.62
2023-02-20T05:34:33.000Z,6.62
2023-02-20T05:35:34.000Z,6.62
2023-02-20T05:36:33.000Z,6.61
2023-02-20T05:37:33.000Z,6.60
2023-02-20T05:38:33.000Z,6.60
2023-02-20T05:39:33.000Z,6.60
2023-02-20T05:40:33.000Z,6.59
2023-02-20T05:41:33.000Z,6.58
2023-02-20T05:42:33.000Z,6.58
2023-02-20T05:43:33.000Z,6.57
2023-02-20T05:44:34.000Z,6.59
2023-02-20T05:45:33.000Z,6.56
2023-02-20T05:46:38.000Z,6.57
2023-02-20T05:47:36.000Z,6.58
2023-02-20T05:48:33.000Z,6.55
2023-02-20T05:49:34.000Z,6.55
2023-02-20T05:50:33.000Z,6.55
2023-02-20T05:51:34.000Z,6.55
2023-02-20T05:52:33.000Z,6.55
2023-02-20T05:53:33.000Z,6.56
2023-02-20T05:54:34.000Z,6.53
2023-02-20T05:55:33.000Z,6.53
2023-02-20T05:56:33.000Z,6.52
2023-02-20T05:57:33.000Z,6.48
2023-02-20T05:58:34.000Z,6.47
2023-02-20T05:59:33.000Z,6.48
2023-02-20T06:00:33.000Z,6.44
2023-02-20T06:01:33.000Z,6.42
2023-02-20T06:02:33.000Z,6.45
2023-02-20T06:03:33.000Z,6.48
2023-02-20T06:04:33.000Z,6.48
2023-02-20T06:05:34.000Z,6.47
2023-02-20T06:06:36.000Z,6.45
2023-02-20T06:07:33.000Z,6.48
2023-02-20T06:08:33.000Z,6.46
2023-02-20T06:09:33.000Z,6.44
2023-02-20T06:10:33.000Z,6.42
2023-02-20T06:11:33.000Z,6.42
2023-02-20T06:12:33.000Z,6.42
2023-02-20T06:13:34.000Z,6.41
2023-02-20T06:14:33.000Z,6.37
2023-02-20T06:15:33.000Z,6.34
2023-02-20T06:16:34.000Z,6.36
2023-02-20T06:17:34.000Z,6.32
2023-02-20T06:18:40.000Z,6.31
2023-02-20T06:19:33.000Z,6.31
2023-02-20T06:20:33.000Z,6.29
2023-02-20T06:21:34.000Z,6.26
2023-02-20T06:22:34.000Z,6.25
2023-02-20T06:23:36.000Z,6.24
2023-02-20T06:24:34.000Z,6.24
2023-02-20T06:25:34.000Z,6.24
2023-02-20T06:26:38.000Z,6.24
2023-02-20T06:27:37.000Z,6.24
2023-02-20T06:28:36.000Z,6.25
2023-02-20T06:29:34.000Z,6.26
2023-02-20T06:30:34.000Z,6.28
2023-02-20T06:31:35.000Z,6.29
2023-02-20T06:32:34.000Z,6.26
2023-02-20T06:33:34.000Z,6.26
2023-02-20T06:34:34.000Z,6.30
2023-02-20T06:35:34.000Z,6.29
2023-02-20T06:36:37.000Z,6.30
2023-02-20T06:37:34.000Z,6.30
2023-02-20T06:38:35.000Z,6.31
2023-02-20T06:39:35.000Z,6.29
2023-02-20T06:40:34.000Z,6.28
2023-02-20T06:41:34.000Z,6.30
2023-02-20T06:42:34.000Z,6.30
2023-02-20T06:43:34.000Z,6.30
2023-02-20T06:44:34.000Z,6.29
2023-02-20T06:45:34.000Z,6.30
2023-02-20T06:46:34.000Z,6.30
2023-02-20T06:47:34.000Z,6.31
2023-02-20T06:48:34.000Z,6.31
2023-02-20T06:49:35.000Z,6.35
2023-02-20T06:50:34.000Z,6.35
2023-02-20T06:51:35.000Z,6.36
2023-02-20T06:52:33.000Z,6.36
2023-02-20T06:53:36.000Z,6.36
2023-02-20T06:54:34.000Z,6.37
2023-02-20T06:55:33.000Z,6.38
2023-02-20T06:56:34.000Z,6.40
2023-02-20T06:57:33.000Z,6.39
2023-02-20T06:58:33.000Z,6.38
2023-02-20T06:59:39.000Z,6.38
2023-02-20T07:00:33.000Z,6.42
2023-02-20T07:01:39.000Z,6.39
2023-02-20T07:02:35.000Z,6.40
2023-02-20T07:03:35.000Z,6.41
2023-02-20T07:04:33.000Z,6.43
2023-02-20T07:05:33.000Z,6.43
2023-02-20T07:06:35.000Z,6.43
2023-02-20T07:07:33.000Z,6.46
2023-02-20T07:08:33.000Z,6.47
2023-02-20T07:09:33.000Z,6.47
2023-02-20T07:10:33.000Z,6.48
2023-02-20T07:11:34.000Z,6.48
2023-02-20T07:12:36.000Z,6.48
2023-02-20T07:13:33.000Z,6.49
2023-02-20T07:14:33.000Z,6.49
2023-02-20T07:15:33.000Z,6.49
2023-02-20T07:16:33.000Z,6.52
2023-02-20T07:17:33.000Z,6.53
2023-02-20T07:18:33.000Z,6.54
2023-02-20T07:19:33.000Z,6.54
2023-02-20T07:20:33.000Z,6.55
2023-02-20T07:21:33.000Z,6.54
2023-02-20T07:22:33.000Z,6.55
2023-02-20T07:23:34.000Z,6.55
2023-02-20T07:24:35.000Z,6.56
2023-02-20T07:25:33.000Z,6.57
2023-02-20T07:26:35.000Z,6.57
2023-02-20T07:27:33.000Z,6.60
2023-02-20T07:28:35.000Z,6.60
2023-02-20T07:29:34.000Z,6.61
2023-02-20T07:30:34.000Z,6.60
2023-02-20T07:31:33.000Z,6.64
2023-02-20T07:32:33.000Z,6.64
2023-02-20T07:33:33.000Z,6.64
2023-02-20T07:34:33.000Z,6.67
2023-02-20T07:35:33.000Z,6.67
2023-02-20T07:36:34.000Z,6.70
2023-02-20T07:37:33.000Z,6.72
2023-02-20T07:38:33.000Z,6.74
2023-02-20T07:39:33.000Z,6.79
2023-02-20T07:40:34.000Z,6.82
2023-02-20T07:41:34.000Z,6.83
2023-02-20T07:42:33.000Z,6.87
2023-02-20T07:43:34.000Z,6.90
2023-02-20T07:44:34.000Z,6.93
2023-02-20T07:45:33.000Z,6.99
2023-02-20T07:46:34.000Z,7.01
2023-02-20T07:47:33.000Z,7.04
2023-02-20T07:48:35.000Z,7.05
2023-02-20T07:49:33.000Z,7.07
2023-02-20T07:50:33.000Z,7.10
2023-02-20T07:51:33.000Z,7.14
2023-02-20T07:52:33.000Z,7.16
2023-02-20T07:53:33.000Z,7.18
2023-02-20T07:54:33.000Z,7.21
2023-02-20T07:55:34.000Z,7.24
2023-02-20T07:56:34.000Z,7.28
2023-02-20T07:57:35.000Z,7.29
2023-02-20T07:58:33.000Z,7.34
2023-02-20T07:59:33.000Z,7.35
2023-02-20T08:00:34.000Z,7.40
2023-02-20T08:01:34.000Z,7.40
2023-02-20T08:02:33.000Z,7.41
2023-02-20T08:03:33.000Z,7.44
2023-02-20T08:04:34.000Z,7.49
2023-02-20T08:05:33.000Z,7.52
2023-02-20T08:06:33.000Z,7.55
2023-02-20T08:07:33.000Z,7.57
2023-02-20T08:08:34.000Z,7.61
2023-02-20T08:09:33.000Z,7.64
2023-02-20T08:10:33.000Z,7.65
2023-02-20T08:11:35.000Z,7.69
2023-02-20T08:12:33.000Z,7.71
2023-02-20T08:13:34.000Z,7.74
2023-02-20T08:14:33.000Z,7.78
2023-02-20T08:15:33.000Z,7.82
2023-02-20T08:16:34.000Z,7.86
2023-02-20T08:17:34.000Z,7.88
2023-02-20T08:18:33.000Z,7.90
2023-02-20T08:19:34.000Z,7.95
2023-02-20T08:20:34.000Z,7.96
2023-02-20T08:21:33.000Z,7.98
2023-02-20T08:22:34.000Z,8.00
2023-02-20T08:23:34.000Z,8.01
2023-02-20T08:24:33.000Z,8.02
2023-02-20T08:25:34.000Z,8.03
2023-02-20T08:26:33.000Z,8.05
2023-02-20T08:27:41.000Z,8.09
2023-02-20T08:28:33.000Z,8.11
2023-02-20T08:29:33.000Z,8.12
2023-02-20T08:30:33.000Z,8.17
2023-02-20T08:31:33.000Z,8.20
2023-02-20T08:32:33.000Z,8.25
2023-02-20T08:33:33.000Z,8.30
2023-02-20T08:34:33.000Z,8.34
2023-02-20T08:35:34.000Z,8.37
2023-02-20T08:36:34.000Z,8.44
2023-02-20T08:37:34.000Z,8.49
2023-02-20T08:38:36.000Z,8.51
2023-02-20T08:39:34.000Z,8.57
2023-02-20T08:40:33.000Z,8.58
2023-02-20T08:41:39.000Z,8.63
2023-02-20T08:42:33.000Z,8.68
2023-02-20T08:43:35.000Z,8.72
2023-02-20T08:44:33.000Z,8.75
2023-02-20T08:45:33.000Z,8.76
2023-02-20T08:46:33.000Z,8.81
2023-02-20T08:47:34.000Z,8.83
2023-02-20T08:48:34.000Z,8.88
2023-02-20T08:49:33.000Z,8.94
2023-02-20T08:50:33.000Z,9.00
2023-02-20T08:51:34.000Z,9.05
2023-02-20T08:52:34.000Z,9.10
2023-02-20T08:53:37.000Z,9.14
2023-02-20T08:54:33.000Z,9.18
2023-02-20T08:55:33.000Z,9.21
2023-02-20T08:56:33.000Z,9.26
2023-02-20T08:57:33.000Z,9.29
2023-02-20T08:58:33.000Z,9.34
2023-02-20T08:59:35.000Z,9.37
2023-02-20T09:00:33.000Z,9.33
2023-02-20T09:01:33.000Z,9.33
2023-02-20T09:02:33.000Z,9.32
2023-02-20T09:03:37.000Z,9.34
2023-02-20T09:04:33.000Z,9.35
2023-02-20T09:05:34.000Z,9.33
2023-02-20T09:06:34.000Z,9.32
2023-02-20T09:07:33.000Z,9.32
2023-02-20T09:08:34.000Z,9.33
2023-02-20T09:09:33.000Z,9.33
2023-02-20T09:10:34.000Z,9.34
2023-02-20T09:11:34.000Z,9.34
2023-02-20T09:12:33.000Z,9.35
2023-02-20T09:13:40.000Z,9.34
2023-02-20T09:14:34.000Z,9.34
2023-02-20T09:15:38.000Z,9.33
2023-02-20T09:16:33.000Z,9.32
2023-02-20T09:17:33.000Z,9.31
2023-02-20T09:18:33.000Z,9.28
2023-02-20T09:19:33.000Z,9.29
2023-02-20T09:20:34.000Z,9.31
2023-02-20T09:21:34.000Z,9.31
2023-02-20T09:22:34.000Z,9.30
2023-02-20T09:23:33.000Z,9.31
2023-02-20T09:24:34.000Z,9.32
2023-02-20T09:25:34.000Z,9.30
2023-02-20T09:26:33.000Z,9.28
2023-02-20T09:27:33.000Z,9.27
2023-02-20T09:28:34.000Z,9.27
2023-02-20T09:29:37.000Z,9.26
2023-02-20T09:30:33.000Z,9.24
2023-02-20T09:31:34.000Z,9.25
2023-02-20T09:32:33.000Z,9.25
2023-02-20T09:33:34.000Z,9.24
2023-02-20T09:34:34.000Z,9.27
2023-02-20T09:35:33.000Z,9.24
2023-02-20T09:36:33.000Z,9.24
2023-02-20T09:37:33.000Z,9.25
2023-02-20T09:38:33.000Z,9.25
2023-02-20T09:39:33.000Z,9.26
2023-02-20T09:40:34.000Z,9.24
2023-02-20T09:41:53.000Z,9.25
2023-02-20T09:42:44.000Z,9.29
2023-02-20T09:43:49.000Z,9.31
2023-02-20T09:44:49.000Z,9.32
2023-02-20T09:45:37.000Z,9.34
2023-02-20T09:46:34.000Z,9.36
2023-02-20T09:47:42.000Z,9.37
2023-02-20T09:48:44.000Z,9.40
2023-02-20T09:49:35.000Z,9.40
2023-02-20T09:50:54.000Z,9.41
2023-02-20T09:51:37.000Z,9.43
2023-02-20T09:52:37.000Z,9.43
2023-02-20T09:53:44.000Z,9.48
2023-02-20T09:54:41.000Z,9.54
2023-02-20T09:55:39.000Z,9.57
2023-02-20T09:56:39.000Z,9.60
2023-02-20T09:57:36.000Z,9.66
2023-02-20T09:58:44.000Z,9.67
2023-02-20T09:59:39.000Z,9.73
2023-02-20T10:00:36.000Z,9.73
2023-02-20T10:01:40.000Z,9.78
2023-02-20T10:02:41.000Z,9.83
2023-02-20T10:03:55.000Z,9.88
2023-02-20T10:04:40.000Z,9.91
2023-02-20T10:05:35.000Z,9.91
2023-02-20T10:06:34.000Z,9.95
2023-02-20T10:07:37.000Z,9.99
2023-02-20T10:08:34.000Z,10.03
2023-02-20T10:09:34.000Z,10.07
2023-02-20T10:10:38.000Z,10.09
2023-02-20T10:11:44.000Z,10.13
2023-02-20T10:12:44.000Z,10.15
2023-02-20T10:13:44.000Z,10.19
2023-02-20T10:14:44.000Z,10.21
2023-02-20T10:15:44.000Z,10.22
2023-02-20T10:16:51.000Z,10.25
2023-02-20T10:17:47.000Z,10.25
2023-02-20T10:18:44.000Z,10.25
2023-02-20T10:19:49.000Z,10.29
2023-02-20T10:20:44.000Z,10.29
2023-02-20T10:21:48.000Z,10.31
2023-02-20T10:22:42.000Z,10.34
2023-02-20T10:23:46.000Z,10.35
2023-02-20T10:25:01.000Z,10.36
2023-02-20T10:25:38.000Z,10.41
2023-02-20T10:26:42.000Z,10.46
2023-02-20T10:27:49.000Z,10.52
2023-02-20T10:28:34.000Z,10.55
2023-02-20T10:29:35.000Z,10.63
2023-02-20T10:30:42.000Z,10.66
2023-02-20T10:31:43.000Z,10.74
2023-02-20T10:32:40.000Z,10.77
2023-02-20T10:33:41.000Z,10.78
2023-02-20T10:34:53.000Z,10.79
2023-02-20T10:35:41.000Z,10.82
2023-02-20T10:36:42.000Z,10.81
2023-02-20T10:37:39.000Z,10.82
2023-02-20T10:38:53.000Z,10.81
2023-02-20T10:39:36.000Z,10.81
2023-02-20T10:40:39.000Z,10.82
2023-02-20T10:41:55.000Z,10.85
2023-02-20T10:42:43.000Z,10.91
2023-02-20T10:43:41.000Z,10.96
2023-02-20T10:44:43.000Z,10.99
2023-02-20T10:45:45.000Z,11.07
2023-02-20T10:46:39.000Z,11.12
2023-02-20T10:47:41.000Z,11.19
2023-02-20T10:48:36.000Z,11.24
2023-02-20T10:49:56.000Z,11.25
2023-02-20T10:50:52.000Z,11.27
2023-02-20T10:51:41.000Z,11.30
2023-02-20T10:52:53.000Z,11.33
2023-02-20T10:53:45.000Z,11.38
2023-02-20T10:54:39.000Z,11.44
2023-02-20T10:55:42.000Z,11.47
2023-02-20T10:56:41.000Z,11.52
2023-02-20T10:57:57.000Z,11.52
2023-02-20T10:58:43.000Z,11.51
2023-02-20T10:59:45.000Z,11.57
2023-02-20T11:00:41.000Z,11.64
2023-02-20T11:01:34.000Z,11.70
2023-02-20T11:02:39.000Z,11.74
2023-02-20T11:03:45.000Z,11.78
2023-02-20T11:04:37.000Z,11.80
2023-02-20T11:05:38.000Z,11.82
2023-02-20T11:06:42.000Z,11.82
2023-02-20T11:07:33.000Z,11.86
2023-02-20T11:08:34.000Z,11.86
2023-02-20T11:09:33.000Z,11.85
2023-02-20T11:10:33.000Z,11.89
2023-02-20T11:11:39.000Z,11.89
2023-02-20T11:12:40.000Z,11.97
2023-02-20T11:13:33.000Z,12.03
2023-02-20T11:14:41.000Z,12.07
2023-02-20T11:15:35.000Z,12.10
2023-02-20T11:16:40.000Z,12.13
2023-02-20T11:17:36.000Z,12.18
2023-02-20T11:18:37.000Z,12.16
2023-02-20T11:19:40.000Z,12.16
2023-02-20T11:20:38.000Z,12.19
2023-02-20T11:21:39.000Z,12.23
2023-02-20T11:22:42.000Z,12.25
2023-02-20T11:23:40.000Z,12.29
2023-02-20T11:24:35.000Z,12.31
2023-02-20T11:25:37.000Z,12.22
2023-02-20T11:26:33.000Z,12.24
2023-02-20T11:27:34.000Z,12.28
2023-02-20T11:28:35.000Z,12.32
2023-02-20T11:29:42.000Z,12.36
2023-02-20T11:30:39.000Z,12.36
2023-02-20T11:31:34.000Z,12.37
2023-02-20T11:32:36.000Z,12.39
2023-02-20T11:33:41.000Z,12.48
2023-02-20T11:34:33.000Z,12.50
2023-02-20T11:35:37.000Z,12.51
2023-02-20T11:36:40.000Z,12.54
2023-02-20T11:37:33.000Z,12.49
2023-02-20T11:38:35.000Z,12.51
2023-02-20T11:39:34.000Z,12.55
2023-02-20T11:40:33.000Z,12.61
2023-02-20T11:41:35.000Z,12.65
2023-02-20T11:42:34.000Z,12.72
2023-02-20T11:43:36.000Z,12.71
2023-02-20T11:44:34.000Z,12.75
2023-02-20T11:45:33.000Z,12.73
2023-02-20T11:46:34.000Z,12.74
2023-02-20T11:47:34.000Z,12.83
2023-02-20T11:48:33.000Z,12.82
2023-02-20T11:49:34.000Z,12.86
2023-02-20T11:50:41.000Z,12.93
2023-02-20T11:51:37.000Z,12.98
2023-02-20T11:52:33.000Z,13.04
2023-02-20T11:53:34.000Z,13.07
2023-02-20T11:54:33.000Z,13.09
2023-02-20T11:55:34.000Z,13.10
2023-02-20T11:56:34.000Z,13.06
2023-02-20T11:57:43.000Z,13.08
2023-02-20T11:58:33.000Z,13.10
2023-02-20T11:59:42.000Z,13.09
2023-02-20T12:00:44.000Z,13.14
2023-02-20T12:01:34.000Z,13.17
2023-02-20T12:02:33.000Z,13.23
2023-02-20T12:03:34.000Z,13.25
2023-02-20T12:04:33.000Z,13.29
2023-02-20T12:05:45.000Z,13.33
2023-02-20T12:06:40.000Z,13.37
2023-02-20T12:07:42.000Z,13.41
2023-02-20T12:08:53.000Z,13.35
2023-02-20T12:09:33.000Z,13.40
2023-02-20T12:10:41.000Z,13.44
2023-02-20T12:11:33.000Z,13.39
2023-02-20T12:12:34.000Z,13.41
2023-02-20T12:13:42.000Z,13.46
2023-02-20T12:14:35.000Z,13.43
2023-02-20T12:15:33.000Z,13.41
2023-02-20T12:16:43.000Z,13.43
2023-02-20T12:17:47.000Z,13.41
2023-02-20T12:18:43.000Z,13.47
2023-02-20T12:19:54.000Z,13.52
2023-02-20T12:20:38.000Z,13.58
2023-02-20T12:21:46.000Z,13.63
2023-02-20T12:22:37.000Z,13.63
2023-02-20T12:23:46.000Z,13.61
2023-02-20T12:24:44.000Z,13.65
2023-02-20T12:25:43.000Z,13.66
2023-02-20T12:26:53.000Z,13.64
2023-02-20T12:27:57.000Z,13.64
2023-02-20T12:29:01.000Z,13.65
2023-02-20T12:29:49.000Z,13.60
2023-02-20T12:30:56.000Z,13.59
2023-02-20T12:31:54.000Z,13.66
2023-02-20T12:32:54.000Z,13.68
2023-02-20T12:33:56.000Z,13.75
2023-02-20T12:34:57.000Z,13.70
2023-02-20T12:35:40.000Z,13.74
2023-02-20T12:36:59.000Z,13.78
2023-02-20T12:38:07.000Z,13.82
2023-02-20T12:38:44.000Z,13.79
2023-02-20T12:39:57.000Z,13.79
2023-02-20T12:41:02.000Z,13.82
2023-02-20T12:41:47.000Z,13.91
2023-02-20T12:42:44.000Z,13.90
2023-02-20T12:43:47.000Z,13.88
2023-02-20T12:45:01.000Z,13.94
2023-02-20T12:45:43.000Z,13.89
2023-02-20T12:46:57.000Z,13.99
2023-02-20T12:47:40.000Z,14.04
2023-02-20T12:49:07.000Z,14.07
2023-02-20T12:49:54.000Z,14.11
2023-02-20T12:50:40.000Z,14.13
2023-02-20T12:51:47.000Z,14.19
2023-02-20T12:52:44.000Z,14.18
2023-02-20T12:53:53.000Z,14.24
2023-02-20T12:54:44.000Z,14.23
2023-02-20T12:55:56.000Z,14.25
2023-02-20T12:56:45.000Z,14.26
2023-02-20T12:57:44.000Z,14.30
2023-02-20T12:58:46.000Z,14.34
2023-02-20T12:59:46.000Z,14.36
2023-02-20T13:00:41.000Z,14.42
2023-02-20T13:01:33.000Z,14.43
2023-02-20T13:02:43.000Z,14.44
2023-02-20T13:03:53.000Z,14.42
2023-02-20T13:04:45.000Z,14.47
2023-02-20T13:05:38.000Z,14.54
2023-02-20T13:06:42.000Z,14.54
2023-02-20T13:07:42.000Z,14.55
2023-02-20T13:08:44.000Z,14.49
2023-02-20T13:09:41.000Z,14.52
2023-02-20T13:10:55.000Z,14.55
2023-02-20T13:11:39.000Z,14.56
2023-02-20T13:12:33.000Z,14.59